Cortlandt Manor, New York
Current Conditions -  °F | °C
As of 1:56 AM on Monday 24 Nov 2014 (Local Time) from KHPN Reporting Station
Light Rain Light Rain  
Wind Chill: 46°   Ceiling: 2500
Heat Index: 49°   Visibility: 2mi
Dew Point: 47°   Wind: 7mph
Humidity: 93%   Direction: 80°E
Pressure: 29.9"   Gusts: NA
Location:  41.29°N, 73.89°W
Report Text: KHPN 240656Z 08006KT 2SM -RA BR SCT011 BKN025 OVC043 09/08 A2990 RMK AO2 SLP127 P0003 T00940083
Loading
Personal Weather Stations






























Interactive Weather Map New forecast layout! Learn more

10-Day Weather Forecast

Advertisements
Track Severe Weather on mobile